Impacts METAR Board
IDs:

KEWR - Newark Intl, NJ, US

Updated at: 1300 UTC 23 Jun 2018
Potential Impact None Slight Moderate High
Time 23/01Z 23/02Z 23/03Z 23/04Z 23/05Z 23/06Z 23/07Z 23/08Z 23/09Z 23/10Z 23/11Z 23/12Z 23/13Z
Temp67 67 66 64 65 65 65 65 64 65 65 66 66
Dewpt60 60 60 62 60 59 57 56 55 53 52 54 56
Altim29.98 29.99 30.00 29.98 29.97 29.96 29.93 29.92 29.90 29.90 29.89 29.87 29.88
VIS10 10 10 5 10 10 10 10 10 10 10 10 10
CIG150 120 36 65 70 26 24 26 25 22 22 19 18
CoverBKNBKNOVCOVCBKNOVCOVCOVCOVCOVCOVCOVCOVC
FltCatVFRVFRVFRMVFRVFRMVFRMVFRMVFRMVFRMVFRMVFRMVFRMVFR
WX-----RA-RA BR------------------
WDir8010012080504050505050505040
WSpd6 7 7 6 9 8 10 7 9 7 7 9 7
WGst-- -- -- -- -- -- -- -- -- -- -- -- --
Raw hourly METARs
KEWR 230051Z 08006KT 10SM FEW017 SCT110 BKN150 BKN250 19/16 A2998 RMK SLP153 T01940156
KEWR 230151Z 10007KT 10SM FEW015 BKN120 BKN170 BKN250 19/16 A2999 RMK SLP156 T01940156
KEWR 230251Z 12007KT 10SM -RA FEW015 BKN036 OVC120 19/16 A3000 RMK RAB16 SLP159 P0001 60001 T01890156 53003
KEWR 230351Z 08006KT 5SM -RA BR FEW007 SCT036 OVC065 18/17 A2998 RMK SLP152 P0013 T01780167
KEWR 230451Z 05009KT 10SM FEW007 SCT035 BKN070 BKN150 18/16 A2997 RMK AO2 RAE34 SLP147 P0000 T01830156 402330172 $
KEWR 230551Z 04008KT 10SM BKN026 OVC038 18/15 A2996 RMK AO2 SLP144 60014 T01830150 10200 20172 56015 $
KEWR 230651Z 05010KT 10SM OVC024 18/14 A2993 RMK AO2 RAB19E40 SLP135 P0000 T01830139 $
KEWR 230751Z 05007KT 10SM OVC026 18/13 A2992 RMK AO2 SLP131 T01830133 $
KEWR 230851Z 05009KT 10SM BKN025 OVC039 18/13 A2990 RMK AO2 RAB09E48 SLP123 P0000 60000 T01780128 56021 $
KEWR 230951Z 05007KT 10SM BKN022 BKN031 OVC050 18/12 A2990 RMK AO2 SLP123 T01830117 $
KEWR 231051Z 05007KT 10SM OVC022 18/11 A2989 RMK AO2 SLP122 T01830111 $
KEWR 231151Z 05009KT 10SM OVC019 19/12 A2987 RMK AO2 SLP116 60000 70014 T01890122 10189 20178 58007 $
KEWR 231251Z 04007KT 10SM OVC018 19/13 A2988 RMK AO2 SLP117 T01890133 $



Page loaded:  13:55 UTC  |   06:55 AM Pacific  |   07:55 AM Mountain  |   08:55 AM Central  |   09:55 AM Eastern

 

ADVISORIES

FORECASTS

FORECASTS

OBSERVATIONS

USER TOOLS

ABOUT US